Time;durP1;ratioP1;P1;durP2;ratioP2;P2;SDS_P1;SDS_P2;PMS_P1;PMS_P2;Temp;Humidity;BMP_temperature;BMP_pressure;BME280_temperature;BME280_humidity;BME280_pressure;Samples;Min_cycle;Max_cycle;Signal;HPM_P1;HPM_P2
2023/12/29 00:02:22;;;;;;;1.93;1.80;;;5.60;99.90;4.60;99383;;;;568749;251;24143;-78
2023/12/29 00:04:51;;;;;;;4.87;2.67;;;5.50;99.90;4.60;99390;;;;563064;252;24144;-78
2023/12/29 00:07:19;;;;;;;3.13;1.40;;;5.40;99.90;4.50;99385;;;;568804;251;24108;-78
2023/12/29 00:09:47;;;;;;;2.57;1.97;;;5.40;99.90;4.50;99384;;;;563112;252;24119;-77
2023/12/29 00:12:15;;;;;;;2.53;2.13;;;5.40;99.90;4.50;99377;;;;569226;249;24186;-77
2023/12/29 00:14:43;;;;;;;2.00;1.87;;;5.30;99.90;4.50;99375;;;;563360;252;24229;-79
2023/12/29 00:17:11;;;;;;;5.93;1.67;;;5.30;99.90;4.50;99378;;;;569100;251;24153;-79
2023/12/29 00:19:39;;;;;;;4.43;2.17;;;5.30;99.90;4.40;99373;;;;562488;252;24123;-79
2023/12/29 00:22:08;;;;;;;2.37;1.13;;;5.30;99.90;4.40;99369;;;;568950;251;24122;-79
2023/12/29 00:24:36;;;;;;;5.30;1.70;;;5.30;99.90;4.40;99373;;;;563029;252;24178;-78
2023/12/29 00:27:03;;;;;;;2.10;1.83;;;5.30;99.90;4.50;99359;;;;568963;250;24134;-78
2023/12/29 00:29:35;;;;;;;2.97;1.80;;;5.30;99.90;4.50;99363;;;;567458;251;24114;-77
2023/12/29 00:32:00;;;;;;;3.93;1.73;;;5.30;99.90;4.50;99362;;;;570396;250;24194;-79
2023/12/29 00:34:28;;;;;;;1.53;1.43;;;5.30;99.90;4.40;99355;;;;569594;251;24116;-77
2023/12/29 00:36:56;;;;;;;3.13;2.30;;;5.30;99.90;4.50;99350;;;;563104;251;24109;-77
2023/12/29 00:39:28;;;;;;;4.27;1.57;;;5.30;99.90;4.50;99349;;;;569447;251;26438;-77
2023/12/29 00:41:52;;;;;;;1.80;1.70;;;5.30;99.90;4.50;99348;;;;572945;246;24088;-78
2023/12/29 00:44:21;;;;;;;1.40;1.23;;;5.30;99.90;4.50;99350;;;;563472;251;24112;-78
2023/12/29 00:46:49;;;;;;;9.33;1.77;;;5.30;99.90;4.40;99352;;;;569521;251;24100;-77
2023/12/29 00:49:18;;;;;;;3.47;1.90;;;5.30;99.90;4.40;99350;;;;563236;251;24124;-78
2023/12/29 00:51:46;;;;;;;4.40;2.03;;;5.30;99.90;4.40;99356;;;;569199;251;27365;-78
2023/12/29 00:54:15;;;;;;;2.67;1.93;;;5.30;99.90;4.50;99345;;;;563297;251;24134;-78
2023/12/29 00:56:42;;;;;;;3.07;2.13;;;5.30;99.90;4.50;99346;;;;569249;249;24102;-78
2023/12/29 00:59:11;;;;;;;3.80;1.70;;;5.40;99.90;4.50;99353;;;;563822;251;24129;-78
2023/12/29 01:01:39;;;;;;;2.67;1.87;;;5.30;99.90;4.50;99345;;;;569016;251;24212;-78
2023/12/29 01:04:07;;;;;;;2.53;1.40;;;5.30;99.90;4.50;99344;;;;563781;252;24126;-77
2023/12/29 01:06:36;;;;;;;1.83;1.70;;;5.30;99.90;4.50;99352;;;;569098;251;24137;-78
2023/12/29 01:09:04;;;;;;;2.43;1.93;;;5.30;99.90;4.50;99336;;;;572039;251;24131;-78
2023/12/29 01:11:32;;;;;;;4.67;2.00;;;5.30;99.90;4.50;99345;;;;571637;251;24126;-79
2023/12/29 01:14:00;;;;;;;1.27;1.23;;;5.40;99.90;4.50;99344;;;;568910;249;25166;-79
2023/12/29 01:16:28;;;;;;;3.60;1.97;;;5.40;99.90;4.50;99326;;;;563509;252;24116;-79
2023/12/29 01:18:56;;;;;;;4.07;1.93;;;5.30;99.90;4.50;99323;;;;569416;251;25152;-79
2023/12/29 01:21:24;;;;;;;1.70;1.60;;;5.30;99.90;4.50;99319;;;;563117;252;24135;-79
2023/12/29 01:23:53;;;;;;;1.87;1.77;;;5.30;99.90;4.50;99313;;;;568842;251;24100;-78
2023/12/29 01:26:21;;;;;;;1.53;1.43;;;5.30;99.90;4.50;99313;;;;563296;251;24159;-78
2023/12/29 01:28:49;;;;;;;5.57;1.50;;;5.30;99.90;4.50;99316;;;;568564;251;24119;-78
2023/12/29 01:31:17;;;;;;;3.90;2.10;;;5.40;99.90;4.50;99307;;;;563622;252;24132;-77
2023/12/29 01:33:44;;;;;;;2.27;2.07;;;5.40;99.90;4.50;99300;;;;568998;251;24117;-78
2023/12/29 01:36:19;;;;;;;6.60;2.53;;;5.40;99.90;4.50;99298;;;;563196;252;24123;-77
2023/12/29 01:38:47;;;;;;;3.97;1.70;;;5.40;99.90;4.50;99287;;;;569389;250;24106;-78
2023/12/29 01:41:15;;;;;;;2.30;2.20;;;5.40;99.90;4.50;99284;;;;564404;251;24113;-78
2023/12/29 01:44:01;;;;;;;1.30;1.20;;;5.40;99.90;4.50;99278;;;;570307;251;24115;-80
2023/12/29 01:46:34;;;;;;;9.17;2.40;;;5.40;99.90;4.50;99273;;;;582476;246;24144;-79
2023/12/29 01:49:02;;;;;;;3.33;2.03;;;5.30;99.90;4.40;99270;;;;564027;251;26413;-80
2023/12/29 01:51:30;;;;;;;4.13;1.70;;;5.30;99.90;4.40;99258;;;;562490;251;24149;-80
2023/12/29 01:53:58;;;;;;;3.43;2.30;;;5.30;99.90;4.40;99272;;;;563685;251;24119;-79
2023/12/29 01:56:28;;;;;;;1.40;1.30;;;5.30;99.90;4.40;99263;;;;571329;247;24376;-79
2023/12/29 01:58:54;;;;;;;8.03;2.77;;;5.20;99.90;4.40;99260;;;;562652;251;24128;-79
2023/12/29 02:01:22;;;;;;;8.63;1.83;;;5.20;99.90;4.40;99250;;;;562399;251;24114;-79
2023/12/29 02:03:51;;;;;;;1.87;1.77;;;5.20;99.90;4.30;99256;;;;563218;251;24126;-78
2023/12/29 02:06:19;;;;;;;7.83;1.73;;;5.20;99.90;4.30;99247;;;;565421;251;24116;-77
2023/12/29 02:08:47;;;;;;;3.47;2.20;;;5.20;99.90;4.30;99250;;;;563873;251;24117;-78
2023/12/29 02:11:15;;;;;;;1.53;1.43;;;5.20;99.90;4.30;99234;;;;565484;251;24110;-79
2023/12/29 02:13:42;;;;;;;3.00;1.97;;;5.10;99.90;4.20;99233;;;;566498;251;24350;-79
2023/12/29 02:16:19;;;;;;;3.43;1.70;;;5.10;99.90;4.20;99236;;;;569205;251;24141;-78
2023/12/29 02:18:47;;;;;;;7.87;3.33;;;5.00;99.90;4.20;99231;;;;562871;251;24128;-79
2023/12/29 02:21:15;;;;;;;9.83;1.90;;;5.00;99.90;4.10;99223;;;;561827;251;24241;-79
2023/12/29 02:23:43;;;;;;;1.60;1.50;;;5.00;99.90;4.10;99214;;;;562951;252;24146;-79
2023/12/29 02:26:11;;;;;;;2.00;1.73;;;5.00;99.90;4.10;99217;;;;568304;251;24127;-78
2023/12/29 02:28:39;;;;;;;1.50;1.40;;;4.90;99.90;4.00;99213;;;;562630;252;24127;-80
2023/12/29 02:31:18;;;;;;;2.67;2.20;;;4.90;99.90;4.00;99219;;;;562840;250;24132;-79
2023/12/29 02:33:47;;;;;;;2.13;1.73;;;4.90;99.90;4.00;99223;;;;563443;251;24105;-79
2023/12/29 02:36:15;;;;;;;3.53;2.07;;;4.80;99.90;4.00;99235;;;;568995;249;24137;-79
2023/12/29 02:38:47;;;;;;;2.03;1.60;;;4.80;99.90;4.00;99230;;;;562900;251;24209;-79
2023/12/29 02:41:14;;;;;;;1.60;1.50;;;4.80;99.90;4.00;99216;;;;571254;247;24176;-79
2023/12/29 02:43:39;;;;;;;4.10;2.10;;;4.80;99.90;4.00;99201;;;;569953;251;24395;-79
2023/12/29 02:46:07;;;;;;;3.57;2.23;;;4.90;99.90;4.10;99186;;;;568450;251;24114;-78
2023/12/29 02:48:35;;;;;;;2.33;1.93;;;4.90;99.90;4.10;99202;;;;563018;252;24143;-78
2023/12/29 02:51:02;;;;;;;1.77;1.67;;;4.90;99.90;4.10;99191;;;;569894;250;24181;-78
2023/12/29 02:53:30;;;;;;;4.90;1.80;;;4.90;99.90;4.00;99186;;;;563524;251;24115;-79
2023/12/29 02:55:58;;;;;;;2.10;1.90;;;4.90;99.90;4.00;99192;;;;565515;251;24164;-79
2023/12/29 02:58:26;;;;;;;2.77;2.07;;;4.90;99.90;3.90;99185;;;;563842;251;24107;-79
2023/12/29 03:00:54;;;;;;;2.70;1.90;;;4.80;99.90;3.90;99192;;;;569226;251;24142;-78
2023/12/29 03:03:22;;;;;;;2.20;2.10;;;4.80;99.90;3.90;99195;;;;563158;251;24131;-80
2023/12/29 03:05:50;;;;;;;2.07;1.97;;;4.80;99.90;3.90;99195;;;;569312;251;24492;-79
2023/12/29 03:08:18;;;;;;;1.93;1.50;;;4.70;99.90;3.80;99192;;;;563577;251;24131;-78
2023/12/29 03:10:46;;;;;;;3.00;2.17;;;4.70;99.90;3.80;99188;;;;568621;251;24125;-77
2023/12/29 03:13:15;;;;;;;2.97;1.50;;;4.70;99.90;3.80;99194;;;;563252;251;24113;-79
2023/12/29 03:15:43;;;;;;;1.83;1.53;;;4.60;99.90;3.70;99199;;;;569488;249;24151;-79
2023/12/29 03:18:11;;;;;;;2.50;1.63;;;4.60;99.90;3.70;99206;;;;562519;251;24164;-79
2023/12/29 03:20:39;;;;;;;1.57;1.47;;;4.60;99.90;3.80;99183;;;;569319;250;24145;-78
2023/12/29 03:23:07;;;;;;;1.60;1.50;;;4.60;99.90;3.80;99181;;;;563666;251;24484;-78
2023/12/29 03:25:34;;;;;;;5.50;1.57;;;4.70;99.90;3.90;99183;;;;570706;251;24138;-78
2023/12/29 03:28:02;;;;;;;1.63;1.53;;;4.70;99.90;4.00;99178;;;;570291;247;24209;-77
2023/12/29 03:30:30;;;;;;;4.20;1.77;;;4.80;99.90;4.00;99169;;;;568202;251;24127;-77
2023/12/29 03:32:58;;;;;;;3.20;1.47;;;4.90;99.90;4.10;99171;;;;563123;252;24135;-77
2023/12/29 03:35:26;;;;;;;9.77;2.00;;;5.00;99.90;4.20;99169;;;;568432;251;24142;-78
2023/12/29 03:37:54;;;;;;;2.20;1.13;;;5.00;99.90;4.30;99173;;;;562920;252;24164;-79
2023/12/29 03:40:22;;;;;;;3.73;2.03;;;5.10;99.90;4.30;99178;;;;568977;251;24100;-78
2023/12/29 03:42:50;;;;;;;4.77;1.53;;;5.20;99.90;4.40;99169;;;;571823;251;24161;-79
2023/12/29 03:45:18;;;;;;;1.60;1.27;;;5.20;99.90;4.40;99163;;;;569122;251;24123;-81
2023/12/29 03:47:46;;;;;;;7.13;2.20;;;5.30;99.90;4.50;99164;;;;563623;252;24116;-79
2023/12/29 03:50:14;;;;;;;3.87;1.90;;;5.40;99.90;4.60;99157;;;;562977;251;24125;-80
2023/12/29 03:52:42;;;;;;;1.77;1.67;;;5.40;99.90;4.50;99149;;;;569263;251;25153;-81
2023/12/29 03:55:11;;;;;;;2.07;1.67;;;5.40;99.90;4.50;99147;;;;562966;252;24122;-80
2023/12/29 03:57:37;;;;;;;3.93;2.00;;;5.40;99.90;4.40;99147;;;;562592;251;24119;-79
2023/12/29 04:00:06;;;;;;;3.77;2.47;;;5.30;99.90;4.30;99154;;;;581917;246;24166;-79
2023/12/29 04:02:33;;;;;;;5.23;1.50;;;5.20;99.90;4.20;99145;;;;564124;251;24112;-80
2023/12/29 04:05:01;;;;;;;3.40;1.77;;;5.10;99.90;4.10;99127;;;;569802;251;24169;-80
2023/12/29 04:07:29;;;;;;;1.80;1.70;;;5.00;99.90;4.00;99132;;;;563435;251;24134;-80
2023/12/29 04:09:57;;;;;;;1.80;1.70;;;4.90;99.90;4.00;99140;;;;569604;251;24507;-79
2023/12/29 04:12:26;;;;;;;2.83;1.70;;;4.90;99.90;4.00;99129;;;;562961;251;24115;-79
2023/12/29 04:14:54;;;;;;;3.63;1.40;;;4.90;99.90;4.00;99131;;;;569203;251;24144;-80
2023/12/29 04:17:22;;;;;;;6.07;1.43;;;4.90;99.90;4.00;99126;;;;563914;251;24174;-80
2023/12/29 04:19:49;;;;;;;2.10;1.83;;;4.90;99.90;4.00;99132;;;;569625;251;24122;-81
2023/12/29 04:22:17;;;;;;;2.67;1.50;;;4.90;99.90;4.00;99116;;;;563165;251;24155;-81
2023/12/29 04:24:46;;;;;;;1.87;1.30;;;4.80;99.90;4.00;99113;;;;569478;251;24126;-82
2023/12/29 04:27:14;;;;;;;2.20;1.50;;;4.80;99.90;4.00;99113;;;;562830;251;24120;-80
2023/12/29 04:29:43;;;;;;;3.17;1.90;;;4.80;99.90;4.00;99103;;;;562691;251;24113;-80
2023/12/29 04:32:10;;;;;;;1.37;1.27;;;4.80;99.90;3.90;99093;;;;563364;251;24104;-82
2023/12/29 04:34:38;;;;;;;2.80;1.50;;;4.80;99.90;3.90;99106;;;;563299;251;24149;-80
2023/12/29 04:37:06;;;;;;;5.43;1.87;;;4.80;99.90;3.90;99098;;;;569217;251;24120;-81
2023/12/29 04:39:34;;;;;;;2.30;1.50;;;4.80;99.90;3.90;99091;;;;563037;252;24467;-80
2023/12/29 04:42:07;;;;;;;2.33;1.87;;;4.80;99.90;4.00;99086;;;;568836;251;24126;-81
2023/12/29 04:44:31;;;;;;;2.77;1.13;;;4.80;99.90;4.00;99085;;;;573689;246;26398;-79
2023/12/29 04:46:59;;;;;;;1.43;1.37;;;4.90;99.90;4.10;99093;;;;563457;251;24156;-80
2023/12/29 04:49:27;;;;;;;3.87;2.17;;;4.90;99.90;4.20;99091;;;;569192;251;24123;-79
2023/12/29 04:51:55;;;;;;;4.17;1.77;;;5.00;99.90;4.20;99074;;;;571436;251;24195;-79
2023/12/29 04:54:27;;;;;;;2.37;1.50;;;5.10;99.90;4.20;99073;;;;569227;251;24126;-79
2023/12/29 04:56:51;;;;;;;1.50;1.40;;;5.10;99.90;4.20;99066;;;;562217;251;24142;-79
2023/12/29 04:59:20;;;;;;;2.53;1.90;;;5.10;99.90;4.20;99072;;;;581909;246;24138;-78
2023/12/29 05:01:48;;;;;;;3.80;1.67;;;5.10;99.90;4.20;99062;;;;562655;252;24116;-78
2023/12/29 05:04:16;;;;;;;2.13;1.80;;;5.10;99.90;4.20;99061;;;;568773;251;24104;-79
2023/12/29 05:06:43;;;;;;;4.80;1.93;;;5.10;99.90;4.30;99061;;;;562658;252;24130;-79
2023/12/29 05:09:11;;;;;;;4.50;1.80;;;5.20;99.90;4.40;99051;;;;568954;251;24226;-78
2023/12/29 05:11:40;;;;;;;2.20;1.80;;;5.30;99.90;4.40;99059;;;;562955;252;24220;-79
2023/12/29 05:14:08;;;;;;;1.80;1.70;;;5.30;99.90;4.50;99057;;;;569964;250;24125;-78
2023/12/29 05:16:36;;;;;;;3.13;1.33;;;5.50;99.90;4.60;99044;;;;564545;251;24116;-78
2023/12/29 05:19:04;;;;;;;2.60;1.70;;;5.40;99.90;4.70;99054;;;;570045;251;24138;-78
2023/12/29 05:21:32;;;;;;;1.73;1.40;;;5.50;99.90;4.70;99057;;;;564161;251;24150;-77
2023/12/29 05:24:00;;;;;;;1.60;1.50;;;5.60;99.90;4.80;99051;;;;569642;251;24096;-79
2023/12/29 05:26:29;;;;;;;4.70;1.87;;;5.70;99.90;4.90;99049;;;;563394;251;24148;-78
2023/12/29 05:28:57;;;;;;;3.23;1.40;;;5.70;99.90;4.90;99031;;;;571432;250;25172;-79
2023/12/29 05:31:25;;;;;;;1.60;1.50;;;5.80;99.90;5.00;99030;;;;562567;251;24128;-78
2023/12/29 05:33:55;;;;;;;2.33;1.53;;;5.80;99.90;5.00;99021;;;;563334;251;24122;-78
2023/12/29 05:36:22;;;;;;;1.70;1.60;;;5.80;99.90;5.00;99015;;;;569192;251;24136;-79
2023/12/29 05:38:51;;;;;;;1.93;1.30;;;5.80;99.90;5.00;99011;;;;563320;251;24098;-79
2023/12/29 05:41:21;;;;;;;5.17;1.40;;;5.80;99.90;5.00;99011;;;;569584;251;24154;-79
2023/12/29 05:43:47;;;;;;;3.53;1.30;;;5.90;99.90;5.00;99019;;;;563851;251;24182;-78
2023/12/29 05:46:15;;;;;;;2.93;0.83;;;5.80;99.90;5.10;99009;;;;571043;251;24107;-78
2023/12/29 05:48:43;;;;;;;4.10;1.47;;;6.00;99.90;5.20;99031;;;;565339;251;24092;-78
2023/12/29 05:51:11;;;;;;;0.93;0.93;;;6.00;99.90;5.20;99036;;;;570779;251;24073;-78
2023/12/29 05:53:41;;;;;;;0.63;0.63;;;6.10;99.90;5.20;99040;;;;573009;251;24129;-77
2023/12/29 05:56:09;;;;;;;2.90;1.13;;;6.10;99.90;5.30;99025;;;;565973;251;24131;-80
2023/12/29 05:58:37;;;;;;;2.40;1.67;;;6.10;99.90;5.40;99015;;;;563546;252;24215;-78
2023/12/29 06:01:05;;;;;;;1.20;1.10;;;6.20;99.90;5.40;99026;;;;570109;251;24126;-78
2023/12/29 06:03:33;;;;;;;6.80;1.83;;;6.20;99.90;5.40;99033;;;;564142;252;24110;-78
2023/12/29 06:06:01;;;;;;;1.17;0.97;;;6.20;99.90;5.40;99029;;;;569686;251;24099;-78
2023/12/29 06:08:29;;;;;;;1.37;1.17;;;6.20;99.90;5.40;99019;;;;563828;252;24130;-79
2023/12/29 06:10:57;;;;;;;1.37;1.27;;;6.30;99.90;5.50;99015;;;;569067;251;24204;-79
2023/12/29 06:13:24;;;;;;;3.20;1.37;;;6.30;99.90;5.50;99013;;;;563346;252;24458;-79
2023/12/29 06:15:53;;;;;;;1.07;1.07;;;6.30;99.90;5.50;99011;;;;565495;251;24108;-80
2023/12/29 06:18:24;;;;;;;1.93;1.20;;;6.30;99.90;5.50;99020;;;;563645;252;24113;-77
2023/12/29 06:20:50;;;;;;;5.90;2.07;;;6.40;99.90;5.60;99017;;;;565471;249;35462;-80
2023/12/29 06:23:18;;;;;;;2.10;1.70;;;6.40;99.90;5.60;99012;;;;571010;251;24139;-81
2023/12/29 06:25:45;;;;;;;3.70;1.70;;;6.50;99.90;5.70;99014;;;;569776;250;24111;-78
2023/12/29 06:28:16;;;;;;;1.60;1.50;;;6.50;99.90;5.70;98997;;;;572122;248;24124;-80
2023/12/29 06:30:41;;;;;;;1.83;1.40;;;6.50;99.90;5.60;98992;;;;571433;251;24142;-78
2023/12/29 06:33:10;;;;;;;1.03;1.00;;;6.40;99.90;5.60;98990;;;;569618;251;24122;-78
2023/12/29 06:35:38;;;;;;;3.00;2.12;;;6.40;99.90;5.50;99004;;;;558776;251;35392;-79
2023/12/29 06:38:06;;;;;;;1.80;1.57;;;6.40;99.90;5.40;99003;;;;569247;249;24126;-79
2023/12/29 06:40:34;;;;;;;3.67;1.50;;;6.30;99.90;5.40;99010;;;;563550;251;24120;-81
2023/12/29 06:43:01;;;;;;;2.23;1.70;;;6.20;99.90;5.30;99009;;;;568785;251;24226;-80
2023/12/29 06:45:30;;;;;;;2.30;1.90;;;6.20;99.90;5.40;99010;;;;558438;251;35377;-80
2023/12/29 06:47:59;;;;;;;2.10;1.90;;;6.20;99.90;5.40;98996;;;;569503;251;24128;-81
2023/12/29 06:50:27;;;;;;;2.97;1.23;;;6.20;99.90;5.50;98988;;;;563112;250;27466;-81
2023/12/29 06:52:55;;;;;;;1.50;1.40;;;6.30;99.90;5.50;98985;;;;569473;251;24121;-80
2023/12/29 06:55:23;;;;;;;1.30;1.30;;;6.30;99.90;5.50;98996;;;;563663;251;24159;-81
2023/12/29 06:57:51;;;;;;;2.63;1.60;;;6.40;99.90;5.60;98991;;;;563687;250;24112;-80
2023/12/29 07:00:19;;;;;;;1.00;1.00;;;6.40;99.90;5.60;98988;;;;571338;249;24129;-78
2023/12/29 07:02:47;;;;;;;1.87;1.17;;;6.40;99.90;5.60;98991;;;;562458;251;24123;-78
2023/12/29 07:05:15;;;;;;;2.47;1.13;;;6.40;99.90;5.60;98999;;;;563128;252;24145;-80
2023/12/29 07:07:43;;;;;;;1.60;1.50;;;6.40;99.90;5.60;98996;;;;570300;251;24142;-78
2023/12/29 07:10:14;;;;;;;3.10;1.07;;;6.50;99.90;5.60;98991;;;;568978;251;24123;-78
2023/12/29 07:12:42;;;;;;;3.20;1.20;;;6.50;99.90;5.70;98993;;;;563116;252;24125;-80
2023/12/29 07:15:13;;;;;;;2.13;1.63;;;6.50;99.90;5.70;98996;;;;568820;251;24104;-78
2023/12/29 07:17:38;;;;;;;4.77;1.20;;;6.50;99.90;5.80;98989;;;;584061;240;24075;-78
2023/12/29 07:20:06;;;;;;;1.30;1.20;;;6.60;99.90;5.90;98991;;;;563410;252;29448;-78
2023/12/29 07:22:34;;;;;;;1.10;1.10;;;6.70;99.90;5.90;99000;;;;562824;251;24132;-77
2023/12/29 07:25:02;;;;;;;1.20;1.10;;;6.70;99.90;6.00;98993;;;;563382;252;24104;-79
2023/12/29 07:27:30;;;;;;;2.57;1.53;;;6.80;99.90;6.00;98992;;;;570355;247;24291;-78
2023/12/29 07:29:58;;;;;;;2.63;1.50;;;6.80;99.90;6.00;98987;;;;569241;251;24248;-79
2023/12/29 07:32:26;;;;;;;1.60;1.50;;;6.80;99.90;6.00;98987;;;;562540;252;24137;-80
2023/12/29 07:34:54;;;;;;;4.97;1.37;;;6.80;99.90;6.00;98991;;;;564896;251;24100;-79
2023/12/29 07:37:22;;;;;;;2.47;1.30;;;6.90;99.90;6.00;98983;;;;572580;249;24117;-77
2023/12/29 07:39:51;;;;;;;1.17;1.07;;;6.80;99.90;6.00;98989;;;;570107;251;24136;-77
2023/12/29 07:42:19;;;;;;;2.10;1.93;;;6.80;99.90;6.00;98988;;;;563698;251;24122;-78
2023/12/29 07:44:47;;;;;;;1.67;1.40;;;6.80;99.90;6.00;98981;;;;569486;251;24132;-78
2023/12/29 07:47:14;;;;;;;1.60;1.03;;;6.80;99.90;6.00;98977;;;;563911;250;24154;-78
2023/12/29 07:49:42;;;;;;;2.00;1.13;;;6.80;99.90;6.00;98985;;;;569723;251;24167;-78
2023/12/29 07:52:11;;;;;;;3.03;1.93;;;6.80;99.90;6.00;98985;;;;565895;250;35377;-77
2023/12/29 07:54:39;;;;;;;2.03;1.93;;;6.80;99.90;6.00;98970;;;;569592;251;26447;-78
2023/12/29 07:57:08;;;;;;;3.00;1.63;;;6.90;99.90;6.10;98973;;;;563629;251;24139;-78
2023/12/29 07:59:35;;;;;;;3.37;1.33;;;6.90;99.90;6.10;98980;;;;569460;251;24124;-79
2023/12/29 08:02:04;;;;;;;4.03;1.47;;;6.90;99.90;6.10;98969;;;;561615;251;24140;-77
2023/12/29 08:04:31;;;;;;;1.27;1.17;;;6.90;99.90;6.10;98966;;;;569207;251;24118;-78
2023/12/29 08:06:59;;;;;;;1.67;1.53;;;6.90;99.90;6.10;98955;;;;570082;246;24482;-80
2023/12/29 08:09:28;;;;;;;1.30;1.20;;;6.90;99.90;6.10;98963;;;;570920;248;24079;-80
2023/12/29 08:11:56;;;;;;;1.67;1.50;;;6.90;99.90;6.20;98975;;;;582192;246;27430;-79
2023/12/29 08:14:24;;;;;;;1.80;1.20;;;7.00;99.90;6.20;98960;;;;572828;248;24116;-80
2023/12/29 08:16:52;;;;;;;2.90;1.83;;;7.00;99.90;6.20;98958;;;;571411;251;24127;-80
2023/12/29 08:19:20;;;;;;;4.73;1.43;;;7.00;99.90;6.30;98950;;;;562950;252;24144;-81
2023/12/29 08:21:48;;;;;;;2.50;1.57;;;7.10;99.90;6.30;98944;;;;582843;242;24068;-81
2023/12/29 08:24:16;;;;;;;1.33;1.23;;;7.10;99.90;6.30;98936;;;;580739;243;24110;-81
2023/12/29 08:26:45;;;;;;;1.83;1.27;;;7.20;99.90;6.40;98932;;;;571781;251;24130;-81
2023/12/29 08:29:18;;;;;;;2.00;1.67;;;7.20;99.90;6.40;98924;;;;564320;252;35467;-77
2023/12/29 08:31:43;;;;;;;1.90;1.37;;;7.20;99.90;6.40;98931;;;;562261;251;24137;-78
2023/12/29 08:34:12;;;;;;;2.97;1.60;;;7.30;99.90;6.40;98919;;;;569584;251;24105;-77
2023/12/29 08:36:39;;;;;;;1.23;1.23;;;7.20;99.90;6.50;98919;;;;562975;251;24211;-78
2023/12/29 08:39:09;;;;;;;2.77;1.80;;;7.30;99.90;6.50;98933;;;;563113;251;24108;-77
2023/12/29 08:41:36;;;;;;;4.37;1.20;;;7.30;99.90;6.50;98919;;;;562945;251;26417;-79
2023/12/29 08:44:07;;;;;;;2.47;1.23;;;7.40;99.90;6.60;98932;;;;561652;251;24188;-79
2023/12/29 08:46:32;;;;;;;4.53;1.30;;;7.40;99.90;6.60;98931;;;;574813;245;24099;-78
2023/12/29 08:49:00;;;;;;;2.47;1.43;;;7.40;99.90;6.70;98926;;;;588602;241;24058;-77
2023/12/29 08:51:31;;;;;;;1.17;1.13;;;7.50;99.90;6.70;98933;;;;583649;245;24089;-79
2023/12/29 08:53:58;;;;;;;2.60;1.00;;;7.50;99.90;6.80;98916;;;;584265;241;24175;-79
2023/12/29 08:56:23;;;;;;;3.03;1.43;;;7.50;99.90;6.80;98931;;;;582187;242;24135;-78
2023/12/29 08:58:52;;;;;;;1.90;1.30;;;7.60;99.90;6.90;98928;;;;563805;246;24088;-79
2023/12/29 09:01:20;;;;;;;6.97;1.37;;;7.60;99.90;6.90;98928;;;;582757;246;24084;-78
2023/12/29 09:03:48;;;;;;;1.20;1.20;;;7.70;99.90;6.90;98944;;;;575454;246;24098;-77
2023/12/29 09:06:16;;;;;;;1.40;1.40;;;7.70;99.90;7.00;98928;;;;561807;251;24108;-79
2023/12/29 09:08:44;;;;;;;1.03;0.93;;;7.80;99.90;7.10;98929;;;;562455;251;25178;-79
2023/12/29 09:11:12;;;;;;;1.57;1.17;;;7.80;99.90;7.10;98933;;;;562954;251;24260;-79
2023/12/29 09:13:40;;;;;;;1.37;1.20;;;7.90;99.90;7.10;98933;;;;562031;251;24186;-80
2023/12/29 09:16:08;;;;;;;1.20;1.10;;;7.90;99.90;7.20;98949;;;;579395;242;24304;-80
2023/12/29 09:18:36;;;;;;;4.30;1.13;;;8.00;99.90;7.30;98949;;;;571303;246;24079;-79
2023/12/29 09:21:04;;;;;;;4.83;1.00;;;8.00;99.90;7.30;98953;;;;574484;241;24065;-80
2023/12/29 09:23:32;;;;;;;1.67;1.30;;;8.10;99.90;7.30;98962;;;;574020;246;24086;-79
2023/12/29 09:26:00;;;;;;;2.17;1.57;;;8.00;99.90;7.20;98960;;;;567928;244;24104;-79
2023/12/29 09:28:28;;;;;;;3.43;2.00;;;8.00;99.90;7.10;98981;;;;574244;242;24042;-79
2023/12/29 09:30:56;;;;;;;1.70;1.47;;;7.70;99.90;6.90;98965;;;;566088;246;24093;-81
2023/12/29 09:33:24;;;;;;;9.00;2.17;;;7.70;99.90;6.80;98957;;;;581084;246;24112;-80
2023/12/29 09:35:53;;;;;;;1.27;1.17;;;7.40;99.90;6.60;98973;;;;575488;246;24152;-79
2023/12/29 09:38:21;;;;;;;1.53;0.63;;;7.40;99.90;6.50;98966;;;;557477;252;24186;-80
2023/12/29 09:40:49;;;;;;;2.63;1.40;;;7.10;99.90;6.40;98978;;;;562563;252;24141;-78
2023/12/29 09:43:21;;;;;;;1.90;1.50;;;7.10;99.90;6.40;98990;;;;560708;252;25145;-79
2023/12/29 09:45:49;;;;;;;1.50;1.40;;;7.00;99.90;6.30;98978;;;;557713;251;24127;-78
2023/12/29 09:48:13;;;;;;;1.33;1.23;;;7.00;99.90;6.30;98988;;;;570851;241;24058;-79
2023/12/29 09:50:41;;;;;;;1.63;1.03;;;7.00;99.90;6.30;98976;;;;566289;248;26435;-79
2023/12/29 09:53:10;;;;;;;2.60;1.60;;;7.00;99.90;6.30;98988;;;;582616;243;24051;-79
2023/12/29 09:55:41;;;;;;;1.40;1.40;;;7.00;99.90;6.30;98975;;;;559286;251;24131;-81
2023/12/29 09:58:05;;;;;;;2.67;1.83;;;7.00;99.90;6.30;98996;;;;571484;246;24076;-81
2023/12/29 10:00:33;;;;;;;1.20;1.10;;;7.00;99.90;6.40;98999;;;;572078;241;24049;-79
2023/12/29 10:03:02;;;;;;;3.40;1.60;;;7.10;99.90;6.30;98999;;;;579237;241;24136;-79
2023/12/29 10:05:32;;;;;;;2.10;1.80;;;7.10;99.90;6.30;98992;;;;574378;246;24126;-80
2023/12/29 10:08:00;;;;;;;2.10;1.47;;;7.00;99.90;6.30;98986;;;;571271;245;24074;-81
2023/12/29 10:10:28;;;;;;;5.10;2.10;;;7.00;99.90;6.30;98991;;;;573015;246;24241;-80
2023/12/29 10:12:56;;;;;;;3.97;1.37;;;7.00;99.90;6.30;98996;;;;569823;246;24094;-81
2023/12/29 10:15:39;;;;;;;1.50;1.37;;;7.00;99.90;6.30;98982;;;;572787;246;24096;-81
2023/12/29 10:18:28;;;;;;;2.43;1.83;;;7.00;99.90;6.30;98968;;;;573096;246;24160;-82
2023/12/29 10:21:07;;;;;;;1.70;1.60;;;7.00;99.90;6.40;98942;;;;571165;246;24076;-80
2023/12/29 10:23:44;;;;;;;1.53;1.43;;;7.10;99.90;6.50;98921;;;;564535;251;24111;-80
2023/12/29 10:26:15;;;;;;;5.23;1.60;;;7.20;99.90;6.50;98921;;;;561478;247;24139;-81
2023/12/29 10:28:40;;;;;;;5.80;1.80;;;7.30;99.90;6.60;98941;;;;560965;251;24108;-81
2023/12/29 10:31:08;;;;;;;1.23;1.07;;;7.40;99.90;6.70;98961;;;;560650;255;25170;-81
2023/12/29 10:33:35;;;;;;;5.43;1.70;;;7.50;99.90;6.70;98945;;;;581822;246;24097;-81
2023/12/29 10:36:06;;;;;;;1.43;1.23;;;7.50;99.90;6.70;98938;;;;574671;246;24100;-81
2023/12/29 10:38:32;;;;;;;1.57;1.47;;;7.50;99.90;6.70;98932;;;;562032;251;24148;-82
2023/12/29 10:41:22;;;;;;;1.47;1.37;;;7.50;99.90;6.70;98919;;;;580108;241;24055;-82
2023/12/29 10:43:52;;;;;;;6.20;2.03;;;7.60;99.90;6.80;98921;;;;572843;246;24088;-79
2023/12/29 10:46:17;;;;;;;3.63;1.27;;;7.60;99.90;6.90;98909;;;;574907;245;24092;-81
2023/12/29 10:48:44;;;;;;;1.50;1.40;;;7.60;99.90;6.90;98903;;;;581599;241;24061;-81
2023/12/29 10:51:12;;;;;;;1.13;1.13;;;7.70;99.90;6.90;98902;;;;564675;251;24118;-81
2023/12/29 10:53:42;;;;;;;1.20;1.10;;;7.70;99.90;6.90;98897;;;;582382;242;24143;-80
2023/12/29 10:56:20;;;;;;;1.33;1.10;;;7.70;99.90;6.90;98906;;;;562575;252;24107;-81
2023/12/29 10:58:48;;;;;;;1.67;1.30;;;7.70;99.90;6.90;98903;;;;573387;246;28364;-81
2023/12/29 11:01:19;;;;;;;1.50;1.40;;;7.70;99.90;6.90;98905;;;;582050;241;24090;-80
2023/12/29 11:03:43;;;;;;;1.00;1.00;;;7.70;99.90;6.90;98907;;;;561847;251;24138;-80
2023/12/29 11:06:14;;;;;;;2.00;0.90;;;7.70;99.90;7.00;98905;;;;581696;246;24190;-80
2023/12/29 11:08:40;;;;;;;1.40;1.33;;;7.80;99.90;7.00;98902;;;;568130;246;24089;-81
2023/12/29 11:11:09;;;;;;;4.63;1.77;;;7.80;99.90;7.00;98895;;;;571292;249;24590;-81
2023/12/29 11:13:39;;;;;;;0.90;0.73;;;7.80;99.90;7.00;98895;;;;558660;254;24154;-82
2023/12/29 11:16:04;;;;;;;2.17;1.47;;;7.80;99.90;7.00;98890;;;;581324;242;24070;-80
2023/12/29 11:18:36;;;;;;;1.87;1.13;;;7.80;99.90;7.00;98901;;;;562287;251;24112;-80
2023/12/29 11:21:00;;;;;;;6.77;1.10;;;7.80;99.90;7.00;98909;;;;567979;245;24199;-80
2023/12/29 11:23:28;;;;;;;0.90;0.90;;;7.80;99.90;7.00;98906;;;;564085;250;24166;-80
2023/12/29 11:25:57;;;;;;;2.43;1.10;;;7.80;99.90;7.10;98887;;;;563919;246;25152;-80
2023/12/29 11:28:25;;;;;;;2.47;1.33;;;7.80;99.90;7.10;98898;;;;572101;251;26399;-80
2023/12/29 11:30:53;;;;;;;1.67;1.43;;;7.80;99.90;7.10;98903;;;;563580;251;24131;-79
2023/12/29 11:33:21;;;;;;;4.07;1.43;;;7.80;99.90;7.00;98910;;;;564287;251;24115;-79
2023/12/29 11:35:51;;;;;;;2.53;1.27;;;7.80;99.90;7.00;98902;;;;564321;251;24133;-80
2023/12/29 11:38:43;;;;;;;2.57;1.13;;;7.80;99.90;6.90;98900;;;;572906;251;24125;-79
2023/12/29 11:41:33;;;;;;;2.23;1.00;;;7.70;99.90;6.90;98907;;;;563834;251;24141;-80